Data for 02/03/2017

Time Sea-Level Adjusted Pressure Absolute Pressure Temperature Relative Humidity Dew Point   
(mb) (inHg) (mb) (inHg) (C) (F) (%) (C) (F)
00:05 1023 30.21 853 25.19 -20.2 -4.3 78 -23.1 -9.6
00:10 1023 30.21 853 25.19 -20.1 -4.2 77 -23.2 -9.8
00:15 1023 30.21 852 25.16 -20.2 -4.3 77 -23.2 -9.8
00:20 1023 30.21 852 25.16 -20.2 -4.4 77 -23.3 -9.9
00:25 1023 30.21 852 25.16 -20.5 -4.9 76 -23.6 -10.6
00:30 1023 30.21 852 25.16 -20.7 -5.3 75 -24.1 -11.3
00:35 1023 30.21 852 25.16 -21 -5.8 74 -24.5 -12
00:40 1023 30.21 852 25.16 -21.3 -6.4 76 -24.6 -12.2
00:45 1023 30.21 852 25.16 -21.4 -6.4 75 -24.6 -12.4
00:50 1022 30.18 852 25.16 -21.3 -6.3 79 -24 -11.3
00:55 1022 30.18 852 25.16 -20.4 -4.8 76 -23.6 -10.5
01:00 1022 30.18 852 25.16 -20.2 -4.3 76 -23.4 -10.2
01:05 1022 30.18 851 25.13 -19.9 -3.9 74 -23.4 -10.2
01:10 1022 30.18 851 25.13 -20 -4 74 -23.5 -10.3
01:15 1022 30.18 851 25.13 -20.4 -4.6 80 -23 -9.4
01:20 1022 30.18 851 25.13 -20 -4.1 81 -22.6 -8.6
01:25 1022 30.18 851 25.13 -20 -4 77 -23.1 -9.6
01:30 1022 30.18 851 25.13 -20.8 -5.5 74 -24.3 -11.8
01:35 1022 30.18 851 25.13 -21.4 -6.5 79 -24.2 -11.6
01:40 1022 30.18 851 25.13 -21.2 -6.2 79 -24 -11.2
01:45 1022 30.18 851 25.13 -21 -5.8 80 -23.6 -10.5
01:50 1022 30.18 851 25.13 -20.7 -5.3 78 -23.6 -10.5
01:55 1022 30.18 851 25.13 -20.9 -5.7 77 -24 -11.2
02:00 1022 30.18 851 25.13 -21.1 -6 77 -24.1 -11.3
02:05 1022 30.18 851 25.13 -20.7 -5.3 78 -23.6 -10.6
02:10 1022 30.18 851 25.13 -20.4 -4.7 75 -23.7 -10.7
02:15 1022 30.18 851 25.13 -20.8 -5.4 72 -24.6 -12.2
02:20 1022 30.18 851 25.13 -22.4 -8.3 76 -25.6 -14.1
02:25 1021 30.15 851 25.13 -22.2 -8 82 -24.5 -12.1
02:30 1021 30.15 851 25.13 -21.2 -6.2 80 -23.9 -11
02:35 1021 30.15 850 25.1 -21 -5.7 78 -23.8 -10.9
02:40 1021 30.15 850 25.1 -21 -5.9 78 -24 -11.1
02:45 1021 30.15 850 25.1 -21.2 -6.1 77 -24.2 -11.6
02:50 1021 30.15 850 25.1 -21.4 -6.5 79 -24.1 -11.4
02:55 1021 30.15 850 25.1 -21.2 -6.2 78 -24.1 -11.4
03:00 1021 30.15 850 25.1 -21 -5.8 76 -24.1 -11.4
03:05 1021 30.15 850 25.1 -21.2 -6.2 76 -24.4 -11.9
03:10 1021 30.15 850 25.1 -21.4 -6.5 77 -24.5 -12.1
03:15 1021 30.15 850 25.1 -21.5 -6.6 78 -24.3 -11.7
03:20 1021 30.15 850 25.1 -21.3 -6.3 77 -24.3 -11.7
03:25 1020 30.12 850 25.1 -21.6 -6.8 74 -25 -13
03:30 1020 30.12 850 25.1 -21.9 -7.5 79 -24.7 -12.4
03:35 1021 30.15 850 25.1 -21.5 -6.8 80 -24.1 -11.4
03:40 1020 30.12 850 25.1 -21.2 -6.1 77 -24.3 -11.7
03:45 1020 30.12 849 25.07 -21.7 -7.1 78 -24.6 -12.3
03:50 1020 30.12 849 25.07 -21.8 -7.2 80 -24.3 -11.7
03:55 1020 30.12 849 25.07 -21.5 -6.7 80 -24.1 -11.3
04:00 1020 30.12 849 25.07 -21.4 -6.5 79 -24.1 -11.4
04:05 1020 30.12 849 25.07 -21.2 -6.1 79 -23.9 -11
04:10 1020 30.12 849 25.07 -21.5 -6.7 77 -24.5 -12.1
04:15 1020 30.12 849 25.07 -21.5 -6.8 79 -24.3 -11.8
04:20 1020 30.12 849 25.07 -21.6 -6.8 79 -24.4 -11.8
04:25 1019 30.09 849 25.07 -21.7 -7 79 -24.4 -11.9
04:30 1019 30.09 849 25.07 -21.4 -6.6 81 -23.8 -10.9
04:35 1019 30.09 848 25.04 -20.9 -5.5 82 -23.2 -9.8
04:40 1019 30.09 848 25.04 -20.7 -5.2 80 -23.3 -9.9
04:45 1019 30.09 848 25.04 -20.5 -5 79 -23.3 -9.9
04:50 1019 30.09 848 25.04 -20.9 -5.6 79 -23.7 -10.7
04:55 1019 30.09 848 25.04 -20.8 -5.4 81 -23.3 -9.9
05:00 1019 30.09 848 25.04 -20.4 -4.6 79 -23.1 -9.6
05:05 1019 30.09 848 25.04 -20.2 -4.4 78 -23.1 -9.7
05:10 1019 30.09 848 25.04 -20 -4.1 78 -23 -9.4
05:15 1018 30.06 848 25.04 -19.9 -3.9 77 -23 -9.3
05:20 1018 30.06 848 25.04 -19.9 -3.8 78 -22.8 -9
05:25 1018 30.06 848 25.04 -19.9 -3.8 78 -22.8 -9.1
05:30 1018 30.06 848 25.04 -19.7 -3.5 78 -22.7 -8.8
05:35 1018 30.06 847 25.01 -19.6 -3.2 79 -22.4 -8.3
05:40 1018 30.06 847 25.01 -19.5 -3.1 79 -22.3 -8.1
05:45 1018 30.06 847 25.01 -19.5 -3 79 -22.2 -7.9
05:50 1018 30.06 848 25.04 -19.4 -2.8 79 -22.1 -7.8
05:55 1018 30.06 847 25.01 -19.3 -2.7 79 -22 -7.6
06:00 1018 30.06 847 25.01 -19.2 -2.6 79 -21.9 -7.5
06:05 1018 30.06 848 25.04 -19.2 -2.5 80 -21.8 -7.3
06:10 1018 30.06 847 25.01 -19.1 -2.3 79 -21.8 -7.3
06:15 1018 30.06 847 25.01 -19.2 -2.5 80 -21.9 -7.4
06:20 1018 30.06 847 25.01 -19.3 -2.8 80 -22 -7.6
06:25 1018 30.06 847 25.01 -19.5 -3.2 80 -22.1 -7.8
06:30 1018 30.06 847 25.01 -19.5 -3.2 80 -22.1 -7.8
06:35 1018 30.06 847 25.01 -19.4 -2.9 81 -21.9 -7.4
06:40 1017 30.03 847 25.01 -19.1 -2.3 81 -21.6 -6.9
06:45 1017 30.03 847 25.01 -19.1 -2.3 80 -21.8 -7.2
06:50 1017 30.03 847 25.01 -19.3 -2.7 81 -21.7 -7.1
06:55 1017 30.03 847 25.01 -19.1 -2.3 82 -21.5 -6.6
07:00 1017 30.03 847 25.01 -18.8 -1.9 81 -21.4 -6.5
07:05 1017 30.03 847 25.01 -18.8 -1.9 80 -21.5 -6.6
07:10 1017 30.03 846 24.98 -18.8 -1.9 80 -21.4 -6.6
07:15 1017 30.03 846 24.98 -18.9 -1.9 80 -21.5 -6.6
07:20 1017 30.03 846 24.98 -19 -2.1 80 -21.6 -6.9
07:25 1017 30.03 846 24.98 -18.9 -2 81 -21.5 -6.6
07:30 1017 30.03 846 24.98 -18.8 -1.8 80 -21.4 -6.6
07:35 1017 30.03 846 24.98 -18.8 -1.9 80 -21.5 -6.7
07:40 1017 30.03 846 24.98 -18.9 -2.1 81 -21.5 -6.6
07:45 1017 30.03 846 24.98 -18.8 -1.9 81 -21.3 -6.3
07:50 1017 30.03 846 24.98 -18.7 -1.6 82 -21.1 -5.9
07:55 1017 30.03 846 24.98 -18.4 -1 81 -20.8 -5.4
08:00 1017 30.03 846 24.98 -18.1 -0.5 80 -20.7 -5.2
08:05 1017 30.03 846 24.98 -17.9 -0.2 80 -20.6 -5.1
08:10 1017 30.03 846 24.98 -17.7 0.1 79 -20.6 -5.1
08:15 1017 30.03 846 24.98 -17.7 0.2 78 -20.7 -5.2
08:20 1017 30.03 846 24.98 -17.7 0.1 78 -20.7 -5.3
08:25 1016 30 846 24.98 -17.8 -0.1 78 -20.8 -5.4
08:30 1016 30 845 24.95 -17.9 -0.2 77 -21 -5.8
08:35 1016 30 845 24.95 -18.1 -0.5 77 -21.1 -6.1
08:40 1016 30 845 24.95 -18 -0.5 78 -20.9 -5.7
08:45 1016 30 845 24.95 -17.9 -0.3 78 -21 -5.7
08:50 1016 30 845 24.95 -17.8 -0.1 78 -20.8 -5.4
08:55 1016 30 845 24.95 -17.6 0.4 77 -20.7 -5.3
09:00 1015 29.97 845 24.95 -17.3 0.8 74 -20.8 -5.5
09:05 1015 29.97 844 24.92 -17.3 0.9 76 -20.6 -5.1
09:10 1015 29.97 844 24.92 -17.1 1.3 75 -20.5 -4.9
09:15 1015 29.97 844 24.92 -16.8 1.8 75 -20.2 -4.3
09:20 1015 29.97 844 24.92 -16.2 2.8 74 -19.9 -3.7
09:25 1015 29.97 844 24.92 -15.8 3.5 73 -19.6 -3.3
09:30 1015 29.97 844 24.92 -15.7 3.7 71 -19.9 -3.8
09:35 1015 29.97 844 24.92 -15.8 3.6 71 -19.9 -3.9
09:40 1015 29.97 844 24.92 -16 3.2 72 -19.9 -3.9
09:45 1015 29.97 844 24.92 -16.1 3 72 -20 -4
09:50 1015 29.97 844 24.92 -16.2 2.9 73 -20 -4
09:55 1015 29.97 844 24.92 -16.2 2.8 73 -20 -4.1
10:00 1015 29.97 844 24.92 -16 3.3 71 -20 -4
10:05 1015 29.97 844 24.92 -15.7 3.7 72 -19.7 -3.4
10:10 1015 29.97 844 24.92 -15.4 4.3 70 -19.8 -3.6
10:15 1015 29.97 844 24.92 -15.2 4.7 70 -19.5 -3.2
10:20 1015 29.97 844 24.92 -14.9 5.1 68 -19.6 -3.3
10:25 1014 29.94 844 24.92 -15.1 4.8 68 -19.7 -3.5
10:30 1014 29.94 844 24.92 -15 4.9 69 -19.6 -3.2
10:35 1014 29.94 843 24.89 -14.6 5.7 68 -19.4 -2.9
10:40 1014 29.94 844 24.92 -14.3 6.2 68 -19 -2.2
10:45 1014 29.94 843 24.89 -14.1 6.6 66 -19.1 -2.3
10:50 1014 29.94 843 24.89 -14.1 6.7 67 -18.9 -2
10:55 1014 29.94 843 24.89 -14.1 6.6 67 -19 -2.2
11:00 1014 29.94 843 24.89 -14.1 6.7 67 -19 -2.2
11:05 1014 29.94 843 24.89 -14 6.8 67 -18.9 -2.1
11:10 1014 29.94 843 24.89 -13.8 7.1 64 -19.2 -2.5
11:15 1014 29.94 843 24.89 -14 6.8 68 -18.7 -1.7
11:20 1014 29.94 843 24.89 -14.2 6.5 67 -19 -2.1
11:25 1014 29.94 843 24.89 -14.2 6.5 66 -19.2 -2.5
11:30 1014 29.94 843 24.89 -14.1 6.7 64 -19.4 -3
11:35 1014 29.94 843 24.89 -13.9 7 65 -19.1 -2.4
11:40 1014 29.94 843 24.89 -13.4 7.9 64 -18.8 -1.9
11:45 1014 29.94 843 24.89 -13.3 8.1 63 -18.9 -2
11:50 1014 29.94 843 24.89 -13.5 7.7 65 -18.7 -1.7
11:55 1013 29.91 843 24.89 -13.5 7.7 65 -18.8 -1.8
12:00 1013 29.91 842 24.86 -13.6 7.5 67 -18.4 -1.2
12:05 1013 29.91 842 24.86 -13.2 8.3 65 -18.3 -1
12:10 1013 29.91 842 24.86 -12.8 8.9 64 -18.2 -0.8
12:15 1013 29.91 842 24.86 -12.3 10 63 -17.9 -0.2
12:20 1012 29.88 842 24.86 -11.8 10.8 62 -17.7 0.2
12:25 1012 29.88 842 24.86 -11.5 11.4 60 -17.7 0.1
12:30 1012 29.88 842 24.86 -11.4 11.5 61 -17.5 0.6
12:35 1012 29.88 841 24.83 -12 10.5 62 -17.8 0
12:40 1012 29.88 841 24.83 -11.5 11.3 61 -17.6 0.4
12:45 1012 29.88 841 24.83 -11.2 11.8 60 -17.5 0.5
12:50 1012 29.88 841 24.83 -11 12.3 61 -17 1.3
12:55 1012 29.88 841 24.83 -10.7 12.7 59 -17.3 0.9
13:00 1012 29.88 841 24.83 -11.2 11.9 62 -17.1 1.2
13:05 1011 29.85 841 24.83 -11.6 11.2 64 -17.1 1.3
13:10 1011 29.85 841 24.83 -11.1 12 63 -16.9 1.6
13:15 1011 29.85 840 24.81 -10.6 12.9 61 -16.7 1.9
13:20 1011 29.85 840 24.81 -10 14.1 58 -16.6 2.1
13:25 1011 29.85 840 24.81 -9.7 14.6 57 -16.6 2.1
13:30 1011 29.85 840 24.81 -9.5 14.9 57 -16.6 2.2
13:35 1011 29.85 840 24.81 -9.4 15.2 55 -16.9 1.7
13:40 1011 29.85 840 24.81 -9.3 15.3 55 -16.8 1.8
13:45 1011 29.85 840 24.81 -9.9 14.3 58 -16.6 2.1
13:50 1011 29.85 840 24.81 -10.1 13.9 61 -16.3 2.6
13:55 1011 29.85 840 24.81 -10.1 13.9 58 -16.9 1.6
14:00 1010 29.83 840 24.81 -10 14.1 60 -16.3 2.7
14:05 1010 29.83 839 24.78 -9.8 14.4 61 -16 3.2
14:10 1010 29.83 839 24.78 -10.1 13.8 60 -16.4 2.4
14:15 1010 29.83 839 24.78 -10 14.1 61 -16.1 3
14:20 1010 29.83 839 24.78 -9.6 14.8 59 -16.2 2.8
14:25 1010 29.83 839 24.78 -9.2 15.4 58 -16 3.2
14:30 1010 29.83 839 24.78 -9.3 15.3 57 -16.4 2.5
14:35 1010 29.83 839 24.78 -9.7 14.5 60 -16 3.1
14:40 1010 29.83 839 24.78 -10.4 13.2 63 -16.2 2.8
14:45 1010 29.83 839 24.78 -11.1 12.1 65 -16.4 2.5
14:50 1010 29.83 839 24.78 -10.7 12.8 64 -16.3 2.7
14:55 1009 29.8 839 24.78 -10.3 13.5 61 -16.5 2.4
15:00 1009 29.8 838 24.75 -9.9 14.2 62 -15.8 3.5
15:05 1009 29.8 838 24.75 -9.4 15 61 -15.5 4
15:10 1009 29.8 838 24.75 -9.4 15 61 -15.5 4
15:15 1009 29.8 838 24.75 -9.3 15.3 61 -15.6 4
15:20 1009 29.8 838 24.75 -9 15.8 61 -15.3 4.5
15:25 1009 29.8 838 24.75 -9 15.7 62 -15.1 4.9
15:30 1009 29.8 838 24.75 -8.6 16.5 62 -14.5 5.8
15:35 1009 29.8 838 24.75 -8 17.5 60 -14.5 5.9
15:40 1008 29.77 838 24.75 -7.8 17.9 61 -14.1 6.6
15:45 1008 29.77 838 24.75 -8.2 17.3 62 -14.3 6.2
15:50 1009 29.8 838 24.75 -8.4 16.9 62 -14.3 6.2
15:55 1009 29.8 838 24.75 -7.8 17.9 62 -13.9 6.9
16:00 1009 29.8 838 24.75 -7.7 18.1 61 -14 6.9
16:05 1009 29.8 838 24.75 -8.2 17.3 62 -14.2 6.4
16:10 1009 29.8 838 24.75 -8.4 16.8 63 -14.4 6.1
16:15 1008 29.77 838 24.75 -8.9 15.9 66 -14.2 6.4
16:20 1008 29.77 838 24.75 -9.4 15 68 -14.4 6.1
16:25 1008 29.77 838 24.75 -9.4 15 68 -14.3 6.2
16:30 1008 29.77 838 24.75 -9.2 15.5 67 -14.3 6.3
16:35 1008 29.77 837 24.72 -8.8 16.1 66 -14.1 6.7
16:40 1008 29.77 837 24.72 -8.6 16.4 65 -14 6.8
16:45 1008 29.77 837 24.72 -8.8 16.2 67 -13.8 7.1
16:50 1008 29.77 837 24.72 -8.8 16.1 66 -14.2 6.5
16:55 1008 29.77 837 24.72 -9 15.7 67 -14.1 6.6
17:00 1008 29.77 837 24.72 -9.3 15.4 68 -14.2 6.5
17:05 1008 29.77 837 24.72 -9.2 15.4 68 -14.1 6.6
17:10 1008 29.77 837 24.72 -9.1 15.6 69 -13.9 7
17:15 1008 29.77 837 24.72 -8.8 16.1 69 -13.6 7.5
17:20 1008 29.77 837 24.72 -8.8 16.2 69 -13.4 7.9
17:25 1007 29.74 837 24.72 -8.8 16.2 69 -13.4 7.8
17:30 1007 29.74 836 24.69 -8.9 16.1 71 -13.3 8.1
17:35 1007 29.74 836 24.69 -8.9 16 71 -13.2 8.2
17:40 1007 29.74 836 24.69 -9 15.8 70 -13.4 7.8
17:45 1007 29.74 836 24.69 -8.9 16 71 -13.3 8.1
17:50 1007 29.74 836 24.69 -8.9 15.9 72 -13 8.5
17:55 1007 29.74 836 24.69 -8.5 16.8 71 -12.9 8.8
18:00 1007 29.74 836 24.69 -8.3 17 74 -12.2 10
18:05 1007 29.74 836 24.69 -8.2 17.3 73 -12.2 10.1
18:10 1007 29.74 836 24.69 -8.1 17.5 72 -12.3 9.8
18:15 1007 29.74 836 24.69 -7.8 17.9 70 -12.3 9.8
18:20 1007 29.74 836 24.69 -7.7 18.1 71 -12.2 10.1
18:25 1007 29.74 837 24.72 -8 17.6 74 -11.9 10.5
18:30 1007 29.74 836 24.69 -8.3 17.1 68 -13.3 8.1
18:35 1007 29.74 836 24.69 -10.1 13.8 72 -14.3 6.3
18:40 1007 29.74 836 24.69 -11.6 11.2 78 -14.7 5.5
18:45 1007 29.74 836 24.69 -11.1 11.9 78 -14.2 6.4
18:50 1007 29.74 836 24.69 -10 14 75 -13.6 7.6
18:55 1007 29.74 836 24.69 -9.5 14.9 73 -13.5 7.8
19:00 1007 29.74 836 24.69 -10 14 76 -13.6 7.6
19:05 1007 29.74 836 24.69 -9.9 14.1 78 -13.1 8.4
19:10 1007 29.74 836 24.69 -9.5 15 79 -12.5 9.5
19:15 1007 29.74 836 24.69 -8.8 16.1 77 -12.2 10.1
19:20 1007 29.74 836 24.69 -8.3 17.1 76 -11.8 10.8
19:25 1007 29.74 836 24.69 -7.8 18 79 -10.8 12.6
19:30 1007 29.74 836 24.69 -7 19.4 77 -10.4 13.3
19:35 1007 29.74 836 24.69 -6.6 20.1 75 -10.4 13.2
19:40 1007 29.74 836 24.69 -6 21.1 74 -10 14
19:45 1007 29.74 836 24.69 -6.2 20.9 77 -9.5 14.8
19:50 1007 29.74 836 24.69 -6.1 21 77 -9.5 14.9
19:55 1007 29.74 836 24.69 -5.9 21.4 80 -8.8 16.1
20:00 1007 29.74 836 24.69 -5 22.9 81 -7.8 17.9
20:05 1007 29.74 836 24.69 -4.5 23.9 78 -7.7 18.1
20:10 1007 29.74 836 24.69 -5.1 22.9 70 -9.7 14.6
20:15 1007 29.74 836 24.69 -7 19.4 75 -10.6 12.9
20:20 1007 29.74 836 24.69 -8.2 17.3 76 -11.7 10.9
20:25 1007 29.74 836 24.69 -8.8 16.2 75 -12.4 9.6
20:30 1007 29.74 836 24.69 -9.1 15.6 77 -12.5 9.6
20:35 1007 29.74 836 24.69 -9.1 15.6 76 -12.5 9.4
20:40 1007 29.74 836 24.69 -9 15.8 78 -12.2 10.1
20:45 1007 29.74 836 24.69 -8.8 16.2 79 -11.8 10.7
20:50 1007 29.74 836 24.69 -8.4 16.8 78 -11.5 11.2
20:55 1007 29.74 836 24.69 -8.2 17.3 79 -11.3 11.7
21:00 1007 29.74 836 24.69 -8 17.6 79 -11.1 12
21:05 1007 29.74 836 24.69 -7.4 18.8 78 -10.6 12.9
21:10 1007 29.74 836 24.69 -6.9 19.6 81 -9.6 14.8
21:15 1007 29.74 836 24.69 -6.5 20.2 81 -9.4 15.1
21:20 1007 29.74 836 24.69 -6 21.2 81 -8.8 16.1
21:25 1007 29.74 836 24.69 -5.8 21.6 78 -8.9 15.9
21:30 1007 29.74 836 24.69 -6.1 21.1 74 -9.9 14.2
21:35 1007 29.74 836 24.69 -6.4 20.5 75 -10.1 13.7
21:40 1007 29.74 836 24.69 -6.8 19.7 78 -10.1 13.8
21:45 1007 29.74 836 24.69 -6.6 20 80 -9.6 14.8
21:50 1007 29.74 836 24.69 -5.7 21.8 79 -8.7 16.3
21:55 1007 29.74 836 24.69 -5.2 22.7 79 -8.3 17
22:00 1007 29.74 836 24.69 -5.1 22.7 80 -8.1 17.4
22:05 1007 29.74 836 24.69 -4 24.8 77 -7.5 18.6
22:10 1007 29.74 836 24.69 -3.6 25.5 78 -6.9 19.6
22:15 1007 29.74 836 24.69 -3.2 26.3 74 -7.1 19.1
22:20 1007 29.74 836 24.69 -3.4 25.9 77 -6.8 19.7
22:25 1007 29.74 836 24.69 -2.1 28.1 79 -5.3 22.5
22:30 1007 29.74 836 24.69 -0.9 30.3 72 -5.3 22.5
22:35 1007 29.74 836 24.69 -0.5 31.1 76 -4.2 24.5
22:40 1007 29.74 836 24.69 -0 31.9 77 -3.7 25.4
22:45 1007 29.74 836 24.69 -0.3 31.4 76 -4 24.8
22:50 1007 29.74 836 24.69 -0.8 30.6 74 -4.9 23.2
22:55 1007 29.74 836 24.69 -1.1 30 79 -4.3 24.3
23:00 1007 29.74 836 24.69 -0.5 31.1 76 -4.3 24.3
23:05 1007 29.74 836 24.69 0.1 32.3 75 -3.8 25.1
23:10 1007 29.74 836 24.69 -0.4 31.3 75 -4.2 24.4
23:15 1007 29.74 836 24.69 0.1 32.2 73 -4.1 24.6
23:20 1007 29.74 836 24.69 1.6 34.9 65 -4.3 24.3
23:25 1007 29.74 836 24.69 2.1 35.8 60 -5 23
23:30 1007 29.74 836 24.69 3.7 38.7 55 -4.6 23.7
23:35 1007 29.74 836 24.69 2.7 36.9 64 -3.3 26
23:40 1007 29.74 836 24.69 0.8 33.5 71 -3.9 25.1
23:45 1007 29.74 836 24.69 -0.5 31.1 76 -4.3 24.3
23:50 1007 29.74 836 24.69 -0.2 31.6 76 -3.9 25
23:55 1007 29.74 836 24.69 0.8 33.4 71 -3.9 24.9
24:00 1007 29.74 836 24.69 1.7 35 67 -3.8 25.2